Time;durP1;ratioP1;P1;durP2;ratioP2;P2;SDS_P1;SDS_P2;PMS_P1;PMS_P2;Temp;Humidity;BMP_temperature;BMP_pressure;BME280_temperature;BME280_humidity;BME280_pressure;Samples;Min_cycle;Max_cycle;Signal;HPM_P1;HPM_P2
2024/01/16 00:01:31;;;;;;;25.97;11.87;;;;;;;;;;10123390;29;20033;-78
2024/01/16 00:06:32;;;;;;;26.17;12.43;;;;;;;;;;10113990;29;20075;-80
2024/01/16 00:11:33;;;;;;;28.93;12.47;;;;;;;;;;10114657;29;20029;-79
2024/01/16 00:16:34;;;;;;;24.27;11.40;;;;;;;;;;10115113;29;20492;-79
2024/01/16 00:21:48;;;;;;;29.07;13.03;;;;;;;;;;10124319;29;20025;-78
2024/01/16 00:26:50;;;;;;;24.87;12.17;;;;;;;;;;10116448;29;20064;-78
2024/01/16 00:31:51;;;;;;;25.03;12.57;;;;;;;;;;10117623;29;20487;-78
2024/01/16 00:36:52;;;;;;;24.63;12.23;;;;;;;;;;10119702;29;20032;-80
2024/01/16 00:41:53;;;;;;;27.97;12.83;;;;;;;;;;10121103;29;20065;-80
2024/01/16 00:46:54;;;;;;;25.00;12.17;;;;;;;;;;10121140;29;20069;-78
2024/01/16 00:51:55;;;;;;;23.73;10.77;;;;;;;;;;10120080;29;20445;-77
2024/01/16 00:56:59;;;;;;;20.47;10.33;;;;;;;;;;10121336;29;20036;-78
2024/01/16 01:02:00;;;;;;;24.20;10.37;;;;;;;;;;10119010;29;20074;-80
2024/01/16 01:07:01;;;;;;;23.07;9.80;;;;;;;;;;10111135;29;20779;-79
2024/01/16 01:12:02;;;;;;;20.20;10.67;;;;;;;;;;10113654;29;20124;-78
2024/01/16 01:17:03;;;;;;;19.10;9.57;;;;;;;;;;10119294;29;20541;-77
2024/01/16 01:22:04;;;;;;;24.00;11.43;;;;;;;;;;10119110;29;20738;-79
2024/01/16 01:27:12;;;;;;;36.03;14.60;;;;;;;;;;10112413;29;20056;-78
2024/01/16 01:32:13;;;;;;;25.80;11.37;;;;;;;;;;10112085;29;20108;-79
2024/01/16 01:37:14;;;;;;;24.10;11.53;;;;;;;;;;10120235;29;20088;-81
2024/01/16 01:42:16;;;;;;;28.30;13.70;;;;;;;;;;10109069;29;20516;-78
2024/01/16 01:47:17;;;;;;;24.37;12.03;;;;;;;;;;10119959;29;20048;-81
2024/01/16 01:52:18;;;;;;;28.00;12.53;;;;;;;;;;10109399;29;20043;-81
2024/01/16 01:57:20;;;;;;;22.13;9.87;;;;;;;;;;10120048;29;20051;-78
2024/01/16 02:02:21;;;;;;;20.70;10.13;;;;;;;;;;10111347;29;20073;-79
2024/01/16 02:07:23;;;;;;;21.60;11.23;;;;;;;;;;10108077;29;20048;-78
2024/01/16 02:12:24;;;;;;;28.67;13.90;;;;;;;;;;10113278;29;20718;-79
2024/01/16 02:17:25;;;;;;;25.13;12.67;;;;;;;;;;10105471;29;20047;-79
2024/01/16 02:22:35;;;;;;;25.30;11.93;;;;;;;;;;10118208;29;20038;-79
2024/01/16 02:27:36;;;;;;;22.47;10.87;;;;;;;;;;10107848;29;20068;-78
2024/01/16 02:32:37;;;;;;;24.13;11.50;;;;;;;;;;10124117;29;20438;-79
2024/01/16 02:37:38;;;;;;;25.33;11.37;;;;;;;;;;10127242;29;20036;-78
2024/01/16 02:42:40;;;;;;;22.57;11.17;;;;;;;;;;10115089;29;20080;-78
2024/01/16 02:47:41;;;;;;;21.83;11.93;;;;;;;;;;10112975;29;20063;-78
2024/01/16 02:52:48;;;;;;;24.37;11.83;;;;;;;;;;10119273;29;20758;-81
2024/01/16 02:57:49;;;;;;;20.97;10.77;;;;;;;;;;10122252;29;20028;-77
2024/01/16 03:02:50;;;;;;;22.30;11.80;;;;;;;;;;10126502;29;20032;-77
2024/01/16 03:07:51;;;;;;;28.57;12.77;;;;;;;;;;10115464;29;20045;-78
2024/01/16 03:12:52;;;;;;;28.43;13.43;;;;;;;;;;10124750;29;20396;-80
2024/01/16 03:17:53;;;;;;;25.07;11.27;;;;;;;;;;10112579;29;20888;-79
2024/01/16 03:22:55;;;;;;;27.00;13.23;;;;;;;;;;10125383;29;20629;-78
2024/01/16 03:27:56;;;;;;;26.50;13.03;;;;;;;;;;10105945;29;20056;-79
2024/01/16 03:32:57;;;;;;;29.20;13.37;;;;;;;;;;10123328;29;20032;-79
2024/01/16 03:37:58;;;;;;;26.80;13.53;;;;;;;;;;10125282;29;20044;-80
2024/01/16 03:42:59;;;;;;;34.13;15.67;;;;;;;;;;10122007;29;20039;-79
2024/01/16 03:48:00;;;;;;;31.23;14.20;;;;;;;;;;10118148;29;20474;-79
2024/01/16 03:53:01;;;;;;;30.07;14.73;;;;;;;;;;10119034;29;20044;-79
2024/01/16 03:58:02;;;;;;;34.47;15.43;;;;;;;;;;10113135;29;20052;-78
2024/01/16 04:03:04;;;;;;;43.17;19.17;;;;;;;;;;10122421;29;20064;-78
2024/01/16 04:08:05;;;;;;;14.30;6.07;;;;;;;;;;10111655;29;20044;-77
2024/01/16 04:13:06;;;;;;;5.13;3.03;;;;;;;;;;10123493;29;20540;-79
2024/01/16 04:18:07;;;;;;;7.60;3.03;;;;;;;;;;10116713;29;20040;-80
2024/01/16 04:23:08;;;;;;;6.90;2.90;;;;;;;;;;10120494;29;20045;-81
2024/01/16 04:28:09;;;;;;;8.87;3.80;;;;;;;;;;10122267;29;20128;-81
2024/01/16 04:33:10;;;;;;;7.17;3.53;;;;;;;;;;10122274;29;20063;-79
2024/01/16 04:38:11;;;;;;;6.93;3.50;;;;;;;;;;10122967;29;20733;-79
2024/01/16 04:43:13;;;;;;;9.97;4.03;;;;;;;;;;10113719;29;20047;-80
2024/01/16 04:48:14;;;;;;;11.80;4.37;;;;;;;;;;10120658;29;20028;-80
2024/01/16 04:53:15;;;;;;;11.33;4.77;;;;;;;;;;10122944;29;20048;-78
2024/01/16 04:58:16;;;;;;;8.80;3.80;;;;;;;;;;10121007;29;20040;-80
2024/01/16 05:03:17;;;;;;;10.37;4.30;;;;;;;;;;10119532;29;20115;-80
2024/01/16 05:08:18;;;;;;;13.07;5.03;;;;;;;;;;10120371;29;20032;-79
2024/01/16 05:13:19;;;;;;;15.23;6.00;;;;;;;;;;10111449;29;20047;-80
2024/01/16 05:18:20;;;;;;;15.03;6.43;;;;;;;;;;10120087;29;20041;-80
2024/01/16 05:23:21;;;;;;;12.43;6.30;;;;;;;;;;10121188;29;20481;-80
2024/01/16 05:28:22;;;;;;;17.70;7.47;;;;;;;;;;10120870;29;20083;-79
2024/01/16 05:33:23;;;;;;;19.20;8.00;;;;;;;;;;10103454;29;20092;-80
2024/01/16 05:38:24;;;;;;;19.57;9.77;;;;;;;;;;10121783;29;20052;-80
2024/01/16 05:43:25;;;;;;;38.27;13.60;;;;;;;;;;10120158;29;20040;-78
2024/01/16 05:48:26;;;;;;;44.03;11.50;;;;;;;;;;10120498;29;20430;-80
2024/01/16 05:53:27;;;;;;;40.67;11.93;;;;;;;;;;10121487;29;20040;-79
2024/01/16 05:58:28;;;;;;;35.97;12.63;;;;;;;;;;10119649;29;20033;-79
2024/01/16 06:03:29;;;;;;;42.50;13.20;;;;;;;;;;10120970;29;20067;-78
2024/01/16 06:08:30;;;;;;;37.60;12.03;;;;;;;;;;10126213;29;20054;-79
2024/01/16 06:13:32;;;;;;;40.77;15.17;;;;;;;;;;10128390;29;20040;-78
2024/01/16 06:18:33;;;;;;;49.93;21.33;;;;;;;;;;10127403;29;20028;-79
2024/01/16 06:23:34;;;;;;;40.67;17.33;;;;;;;;;;10119612;29;20047;-78
2024/01/16 06:28:36;;;;;;;36.63;17.23;;;;;;;;;;10127311;29;20428;-78
2024/01/16 06:33:37;;;;;;;78.10;32.97;;;;;;;;;;10127274;29;20099;-81
2024/01/16 06:38:39;;;;;;;123.37;68.13;;;;;;;;;;10126744;29;20036;-78
2024/01/16 06:43:47;;;;;;;34.60;15.63;;;;;;;;;;10118517;29;20552;-78
2024/01/16 06:48:48;;;;;;;32.27;14.20;;;;;;;;;;10126323;29;20032;-79
2024/01/16 06:53:49;;;;;;;49.40;20.27;;;;;;;;;;10125602;29;20484;-81
2024/01/16 06:58:50;;;;;;;32.73;15.30;;;;;;;;;;10122835;29;20092;-82
2024/01/16 07:03:52;;;;;;;27.30;11.73;;;;;;;;;;10126468;29;20044;-81
2024/01/16 07:08:53;;;;;;;27.37;12.27;;;;;;;;;;10125957;29;20572;-80
2024/01/16 07:13:54;;;;;;;46.37;21.13;;;;;;;;;;10120675;29;20032;-78
2024/01/16 07:18:55;;;;;;;49.23;23.40;;;;;;;;;;10124018;29;20635;-80
2024/01/16 07:24:03;;;;;;;40.30;18.00;;;;;;;;;;10125279;29;20048;-79
2024/01/16 07:29:04;;;;;;;40.23;20.57;;;;;;;;;;10121754;29;20139;-79
2024/01/16 07:34:05;;;;;;;99.30;38.83;;;;;;;;;;10124333;29;20430;-79
2024/01/16 07:39:06;;;;;;;54.83;22.20;;;;;;;;;;10124400;29;20031;-82
2024/01/16 07:44:07;;;;;;;70.83;27.37;;;;;;;;;;10116199;29;20753;-80
2024/01/16 07:49:09;;;;;;;71.47;30.67;;;;;;;;;;10123527;29;20428;-78
2024/01/16 07:54:13;;;;;;;64.97;27.00;;;;;;;;;;10113685;29;20077;-79
2024/01/16 07:59:14;;;;;;;75.30;29.47;;;;;;;;;;10100102;29;20060;-79
2024/01/16 08:04:15;;;;;;;48.17;23.17;;;;;;;;;;10123711;29;20040;-79
2024/01/16 08:09:16;;;;;;;35.70;18.13;;;;;;;;;;10124058;29;20100;-78
2024/01/16 08:14:17;;;;;;;42.10;20.90;;;;;;;;;;10115309;29;20036;-79
2024/01/16 08:19:18;;;;;;;43.80;21.47;;;;;;;;;;10122459;29;20536;-80
2024/01/16 08:24:26;;;;;;;35.97;18.30;;;;;;;;;;10124069;29;20496;-83
2024/01/16 08:29:27;;;;;;;50.97;22.27;;;;;;;;;;10120921;29;20063;-82
2024/01/16 08:34:28;;;;;;;34.83;18.17;;;;;;;;;;10121113;29;20037;-78
2024/01/16 08:39:33;;;;;;;35.97;17.57;;;;;;;;;;10121200;29;20044;-78
2024/01/16 08:44:34;;;;;;;41.50;21.80;;;;;;;;;;10109958;29;20477;-77
2024/01/16 08:49:35;;;;;;;33.77;16.97;;;;;;;;;;10119816;29;20033;-79
2024/01/16 08:54:42;;;;;;;31.70;16.33;;;;;;;;;;10120140;29;20111;-78
2024/01/16 08:59:43;;;;;;;34.83;17.03;;;;;;;;;;10120119;29;20087;-79
2024/01/16 09:04:45;;;;;;;30.40;14.20;;;;;;;;;;10120404;29;20049;-79
2024/01/16 09:09:46;;;;;;;31.87;16.47;;;;;;;;;;10119909;29;20036;-81
2024/01/16 09:14:47;;;;;;;38.50;17.67;;;;;;;;;;10119329;29;20041;-79
2024/01/16 09:19:48;;;;;;;30.20;12.70;;;;;;;;;;10119874;29;20421;-79
2024/01/16 09:24:49;;;;;;;20.90;9.90;;;;;;;;;;10120002;29;20052;-82
2024/01/16 09:29:57;;;;;;;19.27;10.60;;;;;;;;;;9845492;29;8070904;-79
2024/01/16 09:35:01;;;;;;;29.03;11.53;;;;;;;;;;10121503;29;20025;-79
2024/01/16 09:40:02;;;;;;;19.00;9.03;;;;;;;;;;10120284;29;20036;-79
2024/01/16 09:45:03;;;;;;;27.27;13.73;;;;;;;;;;10120815;29;20497;-80
2024/01/16 09:50:04;;;;;;;22.90;11.77;;;;;;;;;;10120382;29;20040;-79
2024/01/16 09:55:06;;;;;;;33.03;17.13;;;;;;;;;;10123258;29;20033;-79
2024/01/16 10:00:13;;;;;;;21.40;11.97;;;;;;;;;;10120459;29;20392;-79
2024/01/16 10:05:15;;;;;;;24.97;13.43;;;;;;;;;;10121837;29;20036;-79
2024/01/16 10:10:16;;;;;;;21.33;11.03;;;;;;;;;;10103489;29;20041;-79
2024/01/16 10:15:17;;;;;;;20.33;10.40;;;;;;;;;;10120194;29;20048;-82
2024/01/16 10:20:32;;;;;;;24.30;12.60;;;;;;;;;;10120352;29;20036;-80
2024/01/16 10:25:37;;;;;;;22.20;11.27;;;;;;;;;;10120090;29;20048;-80
2024/01/16 10:30:44;;;;;;;25.80;13.73;;;;;;;;;;10120062;29;20604;-79
2024/01/16 10:35:52;;;;;;;26.33;12.53;;;;;;;;;;10120177;29;20039;-80
2024/01/16 10:41:10;;;;;;;19.63;10.57;;;;;;;;;;10119255;29;20041;-82
2024/01/16 10:46:14;;;;;;;53.90;24.37;;;;;;;;;;10119448;29;20097;-80
2024/01/16 10:51:16;;;;;;;43.83;20.97;;;;;;;;;;10120356;29;20183;-80
2024/01/16 10:56:18;;;;;;;52.83;25.27;;;;;;;;;;10126236;29;20068;-80
2024/01/16 11:01:19;;;;;;;43.13;19.27;;;;;;;;;;10121100;29;20028;-80
2024/01/16 11:06:20;;;;;;;61.27;26.67;;;;;;;;;;10125397;29;20048;-80
2024/01/16 11:11:21;;;;;;;49.63;22.53;;;;;;;;;;10125410;29;20032;-81
2024/01/16 11:16:23;;;;;;;46.37;21.20;;;;;;;;;;10126083;29;20044;-80
2024/01/16 11:21:25;;;;;;;28.73;13.93;;;;;;;;;;10126370;29;20036;-81
2024/01/16 11:26:27;;;;;;;22.83;11.07;;;;;;;;;;10123991;29;20056;-80
2024/01/16 11:31:31;;;;;;;16.27;6.90;;;;;;;;;;10117664;29;20445;-83
2024/01/16 11:36:48;;;;;;;8.33;4.00;;;;;;;;;;10125523;29;20517;-81
2024/01/16 11:41:51;;;;;;;;;;;;;;;;;;10123369;29;20060;-84
2024/01/16 11:47:02;;;;;;;4.53;2.30;;;;;;;;;;10117336;29;20607;-80
2024/01/16 11:52:04;;;;;;;7.07;3.00;;;;;;;;;;10123510;29;20032;-84
2024/01/16 11:57:14;;;;;;;12.17;5.27;;;;;;;;;;10124092;29;20036;-80
2024/01/16 12:02:24;;;;;;;18.90;8.70;;;;;;;;;;10115964;29;20064;-78
2024/01/16 12:07:25;;;;;;;16.03;7.13;;;;;;;;;;10122075;29;20127;-78
2024/01/16 12:12:26;;;;;;;8.67;4.43;;;;;;;;;;10120723;29;20115;-80
2024/01/16 12:17:27;;;;;;;20.20;7.83;;;;;;;;;;10121010;29;20059;-80
2024/01/16 12:22:30;;;;;;;24.70;10.70;;;;;;;;;;10129729;29;20044;-79
2024/01/16 12:27:31;;;;;;;22.67;9.80;;;;;;;;;;10106400;29;20052;-80
2024/01/16 12:32:32;;;;;;;24.83;11.40;;;;;;;;;;10120706;29;20067;-80
2024/01/16 12:37:33;;;;;;;18.80;9.67;;;;;;;;;;10100864;29;20504;-81
2024/01/16 12:42:34;;;;;;;33.63;14.07;;;;;;;;;;10122635;29;20036;-80
2024/01/16 12:47:35;;;;;;;31.27;13.53;;;;;;;;;;10121789;29;20052;-80
2024/01/16 12:52:36;;;;;;;16.17;7.37;;;;;;;;;;10121841;29;20039;-83
2024/01/16 12:57:37;;;;;;;18.23;8.33;;;;;;;;;;10122931;29;20040;-83
2024/01/16 13:02:38;;;;;;;25.37;11.43;;;;;;;;;;10117676;29;20548;-81
2024/01/16 13:07:39;;;;;;;41.50;17.07;;;;;;;;;;10112628;29;20051;-81
2024/01/16 13:12:40;;;;;;;40.10;16.83;;;;;;;;;;10119162;29;20035;-81
2024/01/16 13:17:41;;;;;;;59.97;26.70;;;;;;;;;;10109537;29;20029;-81
2024/01/16 13:22:42;;;;;;;50.23;21.67;;;;;;;;;;10105888;29;20632;-80
2024/01/16 13:27:43;;;;;;;37.10;16.97;;;;;;;;;;10091330;29;20144;-81
2024/01/16 13:32:44;;;;;;;25.90;13.03;;;;;;;;;;10098518;29;20663;-81
2024/01/16 13:37:45;;;;;;;24.87;13.30;;;;;;;;;;10103077;29;20048;-81
2024/01/16 13:42:46;;;;;;;44.30;21.67;;;;;;;;;;10105179;29;20048;-80
2024/01/16 13:47:47;;;;;;;37.83;19.07;;;;;;;;;;10086824;29;20053;-80
2024/01/16 13:52:49;;;;;;;48.17;21.87;;;;;;;;;;10115479;29;20041;-84
2024/01/16 13:57:50;;;;;;;43.47;20.67;;;;;;;;;;10125205;29;20041;-82
2024/01/16 14:02:51;;;;;;;39.37;16.87;;;;;;;;;;10118933;29;20044;-80
2024/01/16 14:07:52;;;;;;;52.00;21.50;;;;;;;;;;10110556;29;20123;-80
2024/01/16 14:12:54;;;;;;;57.10;26.40;;;;;;;;;;10107785;29;20120;-82
2024/01/16 14:17:56;;;;;;;41.47;19.70;;;;;;;;;;10118288;29;20041;-81
2024/01/16 14:22:57;;;;;;;49.33;23.47;;;;;;;;;;10103065;29;20043;-81
2024/01/16 14:28:00;;;;;;;62.70;30.57;;;;;;;;;;10102012;29;20659;-83
2024/01/16 14:33:06;;;;;;;54.77;24.70;;;;;;;;;;10102734;29;20039;-81
2024/01/16 14:38:07;;;;;;;44.40;21.77;;;;;;;;;;10117471;29;20032;-81
2024/01/16 14:43:08;;;;;;;29.60;14.13;;;;;;;;;;10119029;29;20036;-81
2024/01/16 14:48:10;;;;;;;27.07;11.37;;;;;;;;;;10107648;29;20148;-85
2024/01/16 14:53:18;;;;;;;30.03;12.47;;;;;;;;;;10119953;29;20040;-80
2024/01/16 14:58:22;;;;;;;28.50;11.87;;;;;;;;;;10124520;29;20076;-82
2024/01/16 15:03:23;;;;;;;43.03;18.07;;;;;;;;;;10124822;29;20041;-81
2024/01/16 15:08:26;;;;;;;44.43;22.57;;;;;;;;;;10123460;29;20048;-80
2024/01/16 15:13:27;;;;;;;65.83;29.80;;;;;;;;;;10113737;29;20465;-80
2024/01/16 15:18:28;;;;;;;118.77;52.03;;;;;;;;;;10126053;29;20036;-85
2024/01/16 15:23:29;;;;;;;92.20;36.47;;;;;;;;;;10125790;29;20451;-81
2024/01/16 15:28:33;;;;;;;59.87;28.00;;;;;;;;;;10111511;29;20124;-81
2024/01/16 15:33:35;;;;;;;37.23;18.50;;;;;;;;;;10123568;29;20477;-81
2024/01/16 15:38:36;;;;;;;81.43;32.77;;;;;;;;;;10121540;29;20036;-86
2024/01/16 15:43:37;;;;;;;114.10;43.73;;;;;;;;;;10118772;29;20033;-80
2024/01/16 15:48:38;;;;;;;124.37;47.43;;;;;;;;;;10117823;29;20127;-85
2024/01/16 15:53:39;;;;;;;87.27;39.07;;;;;;;;;;10116484;29;20040;-81
2024/01/16 15:58:40;;;;;;;103.50;42.93;;;;;;;;;;10118602;29;20040;-80
2024/01/16 16:03:41;;;;;;;90.50;41.47;;;;;;;;;;10116757;29;20088;-80
2024/01/16 16:08:42;;;;;;;104.00;46.07;;;;;;;;;;10122362;29;20040;-80
2024/01/16 16:13:43;;;;;;;139.60;60.13;;;;;;;;;;10123002;29;20032;-83
2024/01/16 16:18:45;;;;;;;179.13;76.13;;;;;;;;;;10118929;29;20805;-81
2024/01/16 16:23:57;;;;;;;128.70;53.23;;;;;;;;;;10105471;29;20037;-79
2024/01/16 16:28:59;;;;;;;117.67;53.07;;;;;;;;;;10122225;29;20064;-82
2024/01/16 16:34:01;;;;;;;144.07;64.33;;;;;;;;;;10116842;29;20072;-81
2024/01/16 16:39:02;;;;;;;185.70;86.13;;;;;;;;;;10115791;29;20045;-82
2024/01/16 16:44:03;;;;;;;101.90;43.40;;;;;;;;;;10102049;29;20076;-80
2024/01/16 16:49:04;;;;;;;104.10;44.70;;;;;;;;;;10119954;29;20044;-81
2024/01/16 16:54:05;;;;;;;212.43;91.37;;;;;;;;;;10099249;29;20041;-81
2024/01/16 16:59:09;;;;;;;128.63;50.93;;;;;;;;;;10114125;29;20478;-80
2024/01/16 17:04:10;;;;;;;107.50;45.33;;;;;;;;;;10118298;29;20041;-82
2024/01/16 17:09:11;;;;;;;56.63;25.60;;;;;;;;;;10109504;29;20071;-81
2024/01/16 17:14:12;;;;;;;89.83;37.90;;;;;;;;;;10106710;29;20555;-80
2024/01/16 17:19:13;;;;;;;72.47;29.97;;;;;;;;;;10116763;29;20112;-82
2024/01/16 17:24:14;;;;;;;80.83;35.27;;;;;;;;;;10114813;29;20062;-81
2024/01/16 17:29:22;;;;;;;74.73;32.43;;;;;;;;;;10105345;29;20504;-81
2024/01/16 17:34:23;;;;;;;76.07;33.90;;;;;;;;;;10115405;29;20477;-81
2024/01/16 17:39:25;;;;;;;83.37;36.23;;;;;;;;;;10105920;29;20036;-81
2024/01/16 17:44:26;;;;;;;91.97;40.30;;;;;;;;;;10111138;29;20048;-82
2024/01/16 17:49:27;;;;;;;102.63;43.43;;;;;;;;;;10112961;29;20485;-81
2024/01/16 17:54:28;;;;;;;102.73;44.77;;;;;;;;;;10114022;29;20056;-81
2024/01/16 17:59:32;;;;;;;103.73;46.03;;;;;;;;;;10120317;29;20479;-80
2024/01/16 18:04:33;;;;;;;105.80;45.57;;;;;;;;;;10116121;29;20037;-80
2024/01/16 18:09:34;;;;;;;97.93;46.83;;;;;;;;;;10116761;29;20123;-81
2024/01/16 18:14:38;;;;;;;117.67;54.23;;;;;;;;;;10114372;29;20453;-81
2024/01/16 18:19:49;;;;;;;124.20;57.17;;;;;;;;;;10122574;29;20505;-81
2024/01/16 18:24:52;;;;;;;170.50;78.67;;;;;;;;;;10107737;29;20044;-81
2024/01/16 18:29:56;;;;;;;145.50;68.17;;;;;;;;;;10112327;29;20064;-80
2024/01/16 18:34:57;;;;;;;126.77;54.10;;;;;;;;;;10115755;29;20141;-81
2024/01/16 18:39:58;;;;;;;258.23;109.43;;;;;;;;;;10119438;29;20033;-84
2024/01/16 18:44:59;;;;;;;339.23;144.90;;;;;;;;;;10111993;29;20560;-82
2024/01/16 18:50:00;;;;;;;226.30;96.70;;;;;;;;;;10129379;29;20036;-83
2024/01/16 18:55:09;;;;;;;159.50;67.07;;;;;;;;;;10127013;29;20034;-80
2024/01/16 19:00:14;;;;;;;239.23;106.07;;;;;;;;;;10121619;29;20120;-82
2024/01/16 19:05:16;;;;;;;210.48;94.32;;;;;;;;;;10124395;29;20119;-80
2024/01/16 19:10:17;;;;;;;230.67;102.20;;;;;;;;;;10107075;29;20078;-81
2024/01/16 19:15:19;;;;;;;199.37;90.67;;;;;;;;;;10121136;29;20049;-81
2024/01/16 19:20:21;;;;;;;196.77;90.73;;;;;;;;;;10125085;29;20488;-81
2024/01/16 19:25:25;;;;;;;168.47;75.47;;;;;;;;;;10124624;29;20100;-81
2024/01/16 19:30:26;;;;;;;192.97;91.53;;;;;;;;;;10116551;29;20081;-81
2024/01/16 19:35:28;;;;;;;208.90;101.17;;;;;;;;;;10118394;29;20028;-80
2024/01/16 19:40:29;;;;;;;194.47;94.50;;;;;;;;;;10123975;29;20120;-80
2024/01/16 19:45:31;;;;;;;188.53;92.47;;;;;;;;;;10117237;29;20041;-81
2024/01/16 19:50:33;;;;;;;184.63;98.53;;;;;;;;;;10119186;29;20092;-81
2024/01/16 19:55:34;;;;;;;176.57;88.83;;;;;;;;;;10123502;29;20488;-81
2024/01/16 20:00:36;;;;;;;198.17;94.53;;;;;;;;;;10120657;29;20041;-81
2024/01/16 20:05:42;;;;;;;227.27;108.73;;;;;;;;;;10123807;29;20560;-80
2024/01/16 20:10:43;;;;;;;158.43;76.70;;;;;;;;;;10117211;29;20094;-81
2024/01/16 20:15:46;;;;;;;194.57;90.23;;;;;;;;;;10107649;29;20665;-80
2024/01/16 20:20:47;;;;;;;183.27;86.23;;;;;;;;;;10118738;29;20067;-81
2024/01/16 20:25:48;;;;;;;162.70;76.73;;;;;;;;;;10127060;23;20061;-84
2024/01/16 20:30:49;;;;;;;189.40;87.80;;;;;;;;;;10084786;29;20025;-81
2024/01/16 20:35:52;;;;;;;170.77;80.43;;;;;;;;;;10073870;29;20097;-82
2024/01/16 20:40:53;;;;;;;216.20;102.63;;;;;;;;;;10117212;29;20504;-79
2024/01/16 20:46:00;;;;;;;197.13;94.87;;;;;;;;;;10121995;29;20060;-80
2024/01/16 20:51:11;;;;;;;177.47;82.73;;;;;;;;;;10122952;29;20040;-80
2024/01/16 20:56:13;;;;;;;172.37;86.30;;;;;;;;;;10121910;29;20040;-80
2024/01/16 21:01:14;;;;;;;160.37;75.53;;;;;;;;;;10121478;29;20123;-81
2024/01/16 21:06:15;;;;;;;168.10;79.90;;;;;;;;;;10110618;29;20135;-80
2024/01/16 21:11:16;;;;;;;166.30;77.97;;;;;;;;;;10121565;29;20580;-82
2024/01/16 21:16:17;;;;;;;149.57;69.33;;;;;;;;;;10115524;29;20064;-80
2024/01/16 21:21:18;;;;;;;159.10;73.60;;;;;;;;;;10116143;29;20069;-80
2024/01/16 21:26:19;;;;;;;154.67;73.53;;;;;;;;;;10119754;29;20064;-81
2024/01/16 21:31:22;;;;;;;181.03;84.30;;;;;;;;;;10114118;29;20036;-80
2024/01/16 21:36:23;;;;;;;177.23;83.00;;;;;;;;;;10119243;29;20040;-82
2024/01/16 21:41:24;;;;;;;224.03;103.13;;;;;;;;;;10118179;29;20040;-79
2024/01/16 21:46:25;;;;;;;217.93;92.07;;;;;;;;;;10121379;29;20052;-80
2024/01/16 21:51:26;;;;;;;200.77;88.20;;;;;;;;;;10098379;29;20477;-80
2024/01/16 21:56:28;;;;;;;195.77;83.33;;;;;;;;;;10121057;29;20533;-79
2024/01/16 22:01:29;;;;;;;187.23;82.13;;;;;;;;;;10105146;29;20037;-80
2024/01/16 22:06:30;;;;;;;204.83;91.23;;;;;;;;;;10117116;29;20508;-80
2024/01/16 22:11:34;;;;;;;191.93;83.87;;;;;;;;;;10112375;29;20033;-80
2024/01/16 22:16:35;;;;;;;206.43;92.47;;;;;;;;;;10119021;29;20036;-80
2024/01/16 22:21:36;;;;;;;214.60;95.80;;;;;;;;;;10119837;29;20033;-81
2024/01/16 22:26:37;;;;;;;234.40;96.13;;;;;;;;;;10119290;29;20377;-80
2024/01/16 22:31:41;;;;;;;211.03;90.27;;;;;;;;;;10120174;29;20136;-81
2024/01/16 22:36:49;;;;;;;177.50;77.00;;;;;;;;;;10120068;29;20043;-80
2024/01/16 22:41:50;;;;;;;177.63;78.67;;;;;;;;;;10120538;29;20041;-82
2024/01/16 22:46:51;;;;;;;182.80;75.43;;;;;;;;;;10109770;29;20036;-80
2024/01/16 22:51:52;;;;;;;160.27;70.67;;;;;;;;;;10127662;29;20426;-80
2024/01/16 22:56:53;;;;;;;148.47;62.27;;;;;;;;;;10126571;29;20041;-80
2024/01/16 23:01:54;;;;;;;155.77;65.60;;;;;;;;;;10125126;29;20132;-80
2024/01/16 23:07:02;;;;;;;173.87;77.67;;;;;;;;;;10126162;29;20037;-80
2024/01/16 23:12:03;;;;;;;186.80;81.20;;;;;;;;;;10111723;29;20047;-80
2024/01/16 23:17:04;;;;;;;195.87;85.77;;;;;;;;;;10120891;29;20041;-80
2024/01/16 23:22:07;;;;;;;202.47;89.43;;;;;;;;;;10127021;29;20032;-80
2024/01/16 23:27:10;;;;;;;208.53;93.37;;;;;;;;;;10107855;29;20060;-81
2024/01/16 23:32:11;;;;;;;217.37;95.07;;;;;;;;;;10124785;29;20287;-80
2024/01/16 23:37:15;;;;;;;280.83;123.70;;;;;;;;;;10124450;29;20716;-80
2024/01/16 23:42:17;;;;;;;226.37;100.67;;;;;;;;;;10125713;29;20071;-80
2024/01/16 23:47:18;;;;;;;234.17;109.73;;;;;;;;;;10114787;29;20107;-80
2024/01/16 23:52:19;;;;;;;209.87;96.33;;;;;;;;;;10124991;29;20036;-80
2024/01/16 23:57:20;;;;;;;199.77;91.53;;;;;;;;;;10123495;29;20081;-80
